createdAt,value
2022-11-23T00:00:06.017Z,1.39
2022-11-23T00:02:32.787Z,1.36
2022-11-23T00:04:59.521Z,1.40
2022-11-23T00:07:26.765Z,1.43
2022-11-23T00:09:53.425Z,1.43
2022-11-23T00:12:20.286Z,1.42
2022-11-23T00:14:46.891Z,1.44
2022-11-23T00:17:13.986Z,1.37
2022-11-23T00:19:40.682Z,1.35
2022-11-23T00:22:07.309Z,1.34
2022-11-23T00:24:34.040Z,1.32
2022-11-23T00:27:00.706Z,1.37
2022-11-23T00:29:27.717Z,1.36
2022-11-23T00:31:54.364Z,1.38
2022-11-23T00:34:20.984Z,1.41
2022-11-23T00:36:47.591Z,1.42
2022-11-23T00:39:14.176Z,1.36
2022-11-23T00:41:40.845Z,1.31
2022-11-23T00:44:07.956Z,1.35
2022-11-23T00:46:34.685Z,1.36
2022-11-23T00:49:01.819Z,1.34
2022-11-23T00:51:31.260Z,1.31
2022-11-23T00:53:59.933Z,1.35
2022-11-23T00:56:27.576Z,1.31
2022-11-23T00:58:55.791Z,1.37
2022-11-23T01:01:39.679Z,1.38
2022-11-23T01:04:08.105Z,1.39
2022-11-23T01:06:37.833Z,1.36
2022-11-23T01:09:17.949Z,1.38
2022-11-23T01:11:45.019Z,1.39
2022-11-23T01:14:12.381Z,1.34
2022-11-23T01:16:40.631Z,1.27
2022-11-23T01:19:10.868Z,1.34
2022-11-23T01:21:37.624Z,1.29
2022-11-23T01:24:09.340Z,1.38
2022-11-23T01:26:36.005Z,1.40
2022-11-23T01:29:02.672Z,1.38
2022-11-23T01:31:29.433Z,1.37
2022-11-23T01:33:58.016Z,1.41
2022-11-23T01:36:26.679Z,1.39
2022-11-23T01:38:53.880Z,1.41
2022-11-23T01:41:23.003Z,1.41
2022-11-23T01:43:50.598Z,1.39
2022-11-23T01:46:17.687Z,1.31
2022-11-23T01:48:53.374Z,1.37
2022-11-23T01:51:32.386Z,1.27
2022-11-23T01:54:02.253Z,1.26
2022-11-23T01:56:31.478Z,1.31
2022-11-23T01:59:01.939Z,1.28
2022-11-23T02:01:29.062Z,1.27
2022-11-23T02:03:56.268Z,1.33
2022-11-23T02:06:23.364Z,1.30
2022-11-23T02:08:51.952Z,1.31
2022-11-23T02:11:18.751Z,1.35
2022-11-23T02:13:46.391Z,1.30
2022-11-23T02:16:13.977Z,1.37
2022-11-23T02:18:43.859Z,1.39
2022-11-23T02:21:11.233Z,1.36
2022-11-23T02:24:13.635Z,1.41
2022-11-23T02:26:40.979Z,1.49
2022-11-23T02:29:14.793Z,1.46
2022-11-23T02:31:41.397Z,1.35
2022-11-23T02:34:08.078Z,1.46
2022-11-23T02:36:48.771Z,1.44
2022-11-23T02:39:32.321Z,1.46
2022-11-23T02:41:59.961Z,1.48
2022-11-23T02:44:30.376Z,1.51
2022-11-23T02:46:57.645Z,1.42
2022-11-23T02:49:24.837Z,1.52
2022-11-23T02:51:52.156Z,1.58
2022-11-23T02:54:18.927Z,1.61
2022-11-23T02:56:45.581Z,1.58
2022-11-23T02:59:12.269Z,1.58
2022-11-23T03:01:40.273Z,1.55
2022-11-23T03:04:07.503Z,1.58
2022-11-23T03:06:34.356Z,1.54
2022-11-23T03:09:01.033Z,1.53
2022-11-23T03:11:27.748Z,1.55
2022-11-23T03:13:54.492Z,1.52
2022-11-23T03:16:21.261Z,1.53
2022-11-23T03:18:48.013Z,1.57
2022-11-23T03:21:14.781Z,1.55
2022-11-23T03:23:41.511Z,1.53
2022-11-23T03:26:12.677Z,1.46
2022-11-23T03:28:39.942Z,1.49
2022-11-23T03:31:06.978Z,1.53
2022-11-23T03:33:34.056Z,1.52
2022-11-23T03:36:01.013Z,1.52
2022-11-23T03:38:28.034Z,1.56
2022-11-23T03:40:54.947Z,1.52
2022-11-23T03:43:21.833Z,1.44
2022-11-23T03:45:48.473Z,1.47
2022-11-23T03:48:15.820Z,1.52
2022-11-23T03:50:42.480Z,1.53
2022-11-23T03:53:09.609Z,1.46
2022-11-23T03:55:37.598Z,1.44
2022-11-23T03:58:06.128Z,1.38
2022-11-23T04:00:33.221Z,1.42
2022-11-23T04:03:00.422Z,1.42
2022-11-23T04:05:28.043Z,1.40
2022-11-23T04:07:55.163Z,1.39
2022-11-23T04:10:22.202Z,1.39
2022-11-23T04:12:52.903Z,1.39
2022-11-23T04:15:20.241Z,1.39
2022-11-23T04:17:47.032Z,1.45
2022-11-23T04:20:14.308Z,1.47
2022-11-23T04:22:41.112Z,1.45
2022-11-23T04:25:08.253Z,1.48
2022-11-23T04:27:34.980Z,1.48
2022-11-23T04:30:01.850Z,1.48
2022-11-23T04:32:28.601Z,1.50
2022-11-23T04:34:55.370Z,1.38
2022-11-23T04:37:22.111Z,1.39
2022-11-23T04:39:48.775Z,1.37
2022-11-23T04:42:15.604Z,1.37
2022-11-23T04:44:42.331Z,1.31
2022-11-23T04:47:09.829Z,1.36
2022-11-23T04:49:36.520Z,1.40
2022-11-23T04:52:03.451Z,1.36
2022-11-23T04:54:30.639Z,1.29
2022-11-23T04:56:57.501Z,1.35
2022-11-23T04:59:25.242Z,1.35
2022-11-23T05:01:52.404Z,1.27
2022-11-23T05:04:19.783Z,1.19
2022-11-23T05:06:47.000Z,1.25
2022-11-23T05:09:13.710Z,1.28
2022-11-23T05:11:40.639Z,1.39
2022-11-23T05:14:07.368Z,1.43
2022-11-23T05:16:34.050Z,1.49
2022-11-23T05:19:00.718Z,1.46
2022-11-23T05:21:27.391Z,1.51
2022-11-23T05:23:54.012Z,1.50
2022-11-23T05:26:20.611Z,1.57
2022-11-23T05:28:47.159Z,1.56
2022-11-23T05:31:13.925Z,1.54
2022-11-23T05:33:40.650Z,1.50
2022-11-23T05:36:07.613Z,1.53
2022-11-23T05:38:34.355Z,1.52
2022-11-23T05:41:00.939Z,1.47
2022-11-23T05:43:27.556Z,1.48
2022-11-23T05:45:54.112Z,1.43
2022-11-23T05:48:20.795Z,1.43
2022-11-23T05:50:50.357Z,1.41
2022-11-23T05:53:16.970Z,1.44
2022-11-23T05:55:43.791Z,1.47
2022-11-23T05:58:10.618Z,1.43
2022-11-23T06:00:37.433Z,1.37
2022-11-23T06:03:04.655Z,1.41
2022-11-23T06:05:31.685Z,1.22
2022-11-23T06:07:58.455Z,1.42
2022-11-23T06:10:25.173Z,1.44
2022-11-23T06:12:52.757Z,1.43
2022-11-23T06:15:19.591Z,1.39
2022-11-23T06:17:46.373Z,1.41
2022-11-23T06:20:13.158Z,1.46
2022-11-23T06:22:39.877Z,1.43
2022-11-23T06:25:06.992Z,1.43
2022-11-23T06:27:33.885Z,1.35
2022-11-23T06:30:00.612Z,1.40
2022-11-23T06:32:27.385Z,1.36
2022-11-23T06:34:59.400Z,1.38
2022-11-23T06:37:27.610Z,1.41
2022-11-23T06:39:54.335Z,1.41
2022-11-23T06:42:38.500Z,1.37
2022-11-23T06:45:06.775Z,1.40
2022-11-23T06:47:33.475Z,1.43
2022-11-23T06:50:00.224Z,1.43
2022-11-23T06:52:26.966Z,1.42
2022-11-23T06:54:53.743Z,1.45
2022-11-23T06:57:20.433Z,1.47
2022-11-23T06:59:47.152Z,1.49
2022-11-23T07:02:14.829Z,1.56
2022-11-23T07:04:41.617Z,1.54
2022-11-23T07:07:09.239Z,1.60
2022-11-23T07:09:36.149Z,1.63
2022-11-23T07:12:02.903Z,1.62
2022-11-23T07:14:29.615Z,1.65
2022-11-23T07:16:56.495Z,1.72
2022-11-23T07:19:23.197Z,1.64
2022-11-23T07:21:49.974Z,1.65
2022-11-23T07:24:16.645Z,1.66
2022-11-23T07:26:43.334Z,1.65
2022-11-23T07:29:10.691Z,1.75
2022-11-23T07:31:38.294Z,1.79
2022-11-23T07:34:05.308Z,1.79
2022-11-23T07:36:32.057Z,1.83
2022-11-23T07:38:58.754Z,1.69
2022-11-23T07:41:27.422Z,1.78
2022-11-23T07:43:54.325Z,1.90
2022-11-23T07:46:21.398Z,1.89
2022-11-23T07:48:48.228Z,1.98
2022-11-23T07:51:16.248Z,2.01
2022-11-23T07:53:43.004Z,1.96
2022-11-23T07:56:09.804Z,1.96
2022-11-23T07:58:36.604Z,1.96
2022-11-23T08:01:03.529Z,1.97
2022-11-23T08:03:30.717Z,2.03
2022-11-23T08:05:57.692Z,2.10
2022-11-23T08:08:24.664Z,2.13
2022-11-23T08:10:53.828Z,2.12
2022-11-23T08:13:22.036Z,2.17
2022-11-23T08:15:54.303Z,2.17
2022-11-23T08:18:21.512Z,2.19
2022-11-23T08:20:48.297Z,2.19
2022-11-23T08:23:15.097Z,2.20
2022-11-23T08:25:42.164Z,2.31
2022-11-23T08:28:09.033Z,2.30
2022-11-23T08:30:35.856Z,2.23
2022-11-23T08:33:06.692Z,2.26
2022-11-23T08:35:34.448Z,2.25
2022-11-23T08:38:01.790Z,2.38
2022-11-23T08:40:28.684Z,2.39
2022-11-23T08:42:55.432Z,2.47
2022-11-23T08:45:22.594Z,2.41
2022-11-23T08:47:49.944Z,2.52
2022-11-23T08:50:17.412Z,2.56
2022-11-23T08:52:44.184Z,2.69
2022-11-23T08:55:11.174Z,2.70
2022-11-23T08:57:37.914Z,2.64
2022-11-23T09:00:06.435Z,2.68
2022-11-23T09:02:33.395Z,2.62
2022-11-23T09:05:00.889Z,2.46
2022-11-23T09:07:27.718Z,2.43
2022-11-23T09:09:54.455Z,2.57
2022-11-23T09:12:21.242Z,2.63
2022-11-23T09:14:48.051Z,2.69
2022-11-23T09:17:14.794Z,2.72
2022-11-23T09:19:41.712Z,2.83
2022-11-23T09:22:08.495Z,2.89
2022-11-23T09:24:35.667Z,2.83
2022-11-23T09:27:02.556Z,2.81
2022-11-23T09:29:29.340Z,2.76
2022-11-23T09:31:56.176Z,2.89
2022-11-23T09:34:23.214Z,2.89
2022-11-23T09:36:49.991Z,2.75
2022-11-23T09:39:16.814Z,2.72
2022-11-23T09:42:24.672Z,2.84
2022-11-23T09:45:13.214Z,2.82
2022-11-23T09:48:09.474Z,2.78
2022-11-23T09:50:50.956Z,2.70
2022-11-23T09:53:51.604Z,2.77
2022-11-23T09:56:23.981Z,2.87
2022-11-23T09:58:56.454Z,2.88
2022-11-23T10:01:23.515Z,2.89
2022-11-23T10:03:51.096Z,3.01
2022-11-23T10:06:17.818Z,3.01
2022-11-23T10:09:00.385Z,3.03
2022-11-23T10:11:43.783Z,2.96
2022-11-23T10:14:28.400Z,3.01
2022-11-23T10:17:26.200Z,3.13
2022-11-23T10:20:16.576Z,3.06
2022-11-23T10:22:51.701Z,2.85
2022-11-23T10:25:20.339Z,2.98
2022-11-23T10:27:49.195Z,3.04
2022-11-23T10:30:17.580Z,2.92
2022-11-23T10:32:49.022Z,2.87
2022-11-23T10:35:19.516Z,3.04
2022-11-23T10:37:46.314Z,3.02
2022-11-23T10:40:21.003Z,3.05
2022-11-23T10:42:54.854Z,3.29
2022-11-23T10:45:26.616Z,3.19
2022-11-23T10:48:01.454Z,3.01
2022-11-23T10:50:35.115Z,3.01
2022-11-23T10:53:23.326Z,3.16
2022-11-23T10:55:55.245Z,3.19
2022-11-23T10:58:43.393Z,3.26
2022-11-23T11:01:16.111Z,3.39
2022-11-23T11:03:43.171Z,3.34
2022-11-23T11:06:11.460Z,3.33
2022-11-23T11:08:53.016Z,3.46
2022-11-23T11:11:27.252Z,3.48
2022-11-23T11:14:13.613Z,3.56
2022-11-23T11:16:58.070Z,3.58
2022-11-23T11:19:32.050Z,3.70
2022-11-23T11:22:00.900Z,3.63
2022-11-23T11:24:38.953Z,3.65
2022-11-23T11:27:13.067Z,3.68
2022-11-23T11:29:48.099Z,3.59
2022-11-23T11:32:23.924Z,3.51
2022-11-23T11:35:17.493Z,3.60
2022-11-23T11:37:49.772Z,3.89
2022-11-23T11:40:38.414Z,3.85
2022-11-23T11:43:31.295Z,3.87
2022-11-23T11:46:28.763Z,4.02
2022-11-23T11:48:59.777Z,4.09
2022-11-23T11:51:32.343Z,4.21
2022-11-23T11:54:26.270Z,3.90
2022-11-23T11:56:56.091Z,3.90
2022-11-23T11:59:29.637Z,4.00
2022-11-23T12:02:08.590Z,3.94
2022-11-23T12:04:40.493Z,4.07
2022-11-23T12:07:18.740Z,4.12
2022-11-23T12:09:48.387Z,4.13
2022-11-23T12:12:17.825Z,4.02
2022-11-23T12:14:46.833Z,3.95
2022-11-23T12:17:33.082Z,3.96
2022-11-23T12:20:23.340Z,3.93
2022-11-23T12:22:56.524Z,3.86
2022-11-23T12:25:33.328Z,3.89
2022-11-23T12:28:28.565Z,3.94
2022-11-23T12:31:25.920Z,3.99
2022-11-23T12:34:11.454Z,4.17
2022-11-23T12:36:44.265Z,4.22
2022-11-23T12:39:32.823Z,4.17
2022-11-23T12:42:24.179Z,4.03
2022-11-23T12:45:10.156Z,4.06
2022-11-23T12:47:49.852Z,4.25
2022-11-23T12:50:40.653Z,4.48
2022-11-23T12:53:23.826Z,4.52
2022-11-23T12:56:00.921Z,4.51
2022-11-23T12:58:32.883Z,4.52
2022-11-23T13:01:10.718Z,4.48
2022-11-23T13:03:49.801Z,4.63
2022-11-23T13:06:25.344Z,4.74
2022-11-23T13:09:12.171Z,4.70
2022-11-23T13:12:12.336Z,4.60
2022-11-23T13:15:03.655Z,4.49
2022-11-23T13:17:52.474Z,4.55
2022-11-23T13:21:03.926Z,4.47
2022-11-23T13:23:38.038Z,4.57
2022-11-23T13:26:15.926Z,4.51
2022-11-23T13:28:43.661Z,4.59
2022-11-23T13:31:16.940Z,4.86
2022-11-23T13:33:48.523Z,4.75
2022-11-23T13:36:56.465Z,4.58
2022-11-23T13:39:45.417Z,4.63
2022-11-23T13:42:12.714Z,4.50
2022-11-23T13:44:39.942Z,4.65
2022-11-23T13:47:09.725Z,4.54
2022-11-23T13:49:45.545Z,4.47
2022-11-23T13:52:21.551Z,4.49
2022-11-23T13:55:09.772Z,4.35
2022-11-23T13:57:41.925Z,4.39
2022-11-23T14:00:47.039Z,4.40
2022-11-23T14:03:52.214Z,4.39
2022-11-23T14:06:22.917Z,4.32
2022-11-23T14:09:01.227Z,4.21
2022-11-23T14:11:28.342Z,4.28
2022-11-23T14:13:58.955Z,4.31
2022-11-23T14:16:58.004Z,4.46
2022-11-23T14:19:35.043Z,4.69
2022-11-23T14:22:01.724Z,4.34
2022-11-23T14:24:42.464Z,4.00
2022-11-23T14:27:46.210Z,4.00
2022-11-23T14:30:31.281Z,4.08
2022-11-23T14:33:14.462Z,3.97
2022-11-23T14:35:54.236Z,4.03
2022-11-23T14:38:40.074Z,3.88
2022-11-23T14:41:22.636Z,3.85
2022-11-23T14:43:49.818Z,3.85
2022-11-23T14:46:19.959Z,3.83
2022-11-23T14:48:48.235Z,3.66
2022-11-23T14:51:26.723Z,3.68
2022-11-23T14:53:55.647Z,3.71
2022-11-23T14:56:47.702Z,3.69
2022-11-23T14:59:17.599Z,3.72
2022-11-23T15:01:50.334Z,3.76
2022-11-23T15:04:41.269Z,3.85
2022-11-23T15:07:23.582Z,3.81
2022-11-23T15:09:54.277Z,3.69
2022-11-23T15:12:26.056Z,3.77
2022-11-23T15:14:54.218Z,3.71
2022-11-23T15:17:22.356Z,3.73
2022-11-23T15:20:01.277Z,3.71
2022-11-23T15:22:28.950Z,3.70
2022-11-23T15:25:07.065Z,3.64
2022-11-23T15:27:33.957Z,3.50
2022-11-23T15:30:01.032Z,3.43
2022-11-23T15:32:32.791Z,3.36
2022-11-23T15:35:03.789Z,3.42
2022-11-23T15:37:31.292Z,3.41
2022-11-23T15:39:58.269Z,3.36
2022-11-23T15:42:25.751Z,3.36
2022-11-23T15:44:54.782Z,3.32
2022-11-23T15:47:27.832Z,3.26
2022-11-23T15:50:02.641Z,3.14
2022-11-23T15:52:36.427Z,2.93
2022-11-23T15:55:10.056Z,3.03
2022-11-23T15:57:37.661Z,3.05
2022-11-23T16:00:05.863Z,2.95
2022-11-23T16:02:32.910Z,2.89
2022-11-23T16:05:12.764Z,2.94
2022-11-23T16:07:59.705Z,3.02
2022-11-23T16:10:30.935Z,2.97
2022-11-23T16:12:59.778Z,2.98
2022-11-23T16:15:38.556Z,2.92
2022-11-23T16:18:27.958Z,2.98
2022-11-23T16:20:59.533Z,2.96
2022-11-23T16:23:45.135Z,3.01
2022-11-23T16:26:12.429Z,2.98
2022-11-23T16:28:48.222Z,2.92
2022-11-23T16:31:36.250Z,2.96
2022-11-23T16:34:03.611Z,2.85
2022-11-23T16:36:30.455Z,2.91
2022-11-23T16:39:00.969Z,2.93
2022-11-23T16:41:30.914Z,2.94
2022-11-23T16:43:57.631Z,2.97
2022-11-23T16:46:24.448Z,2.98
2022-11-23T16:48:54.041Z,2.95
2022-11-23T16:51:20.787Z,2.93
2022-11-23T16:54:12.364Z,2.97
2022-11-23T16:56:35.396Z,3.02
2022-11-23T16:59:02.533Z,2.97
2022-11-23T17:01:30.348Z,3.02
2022-11-23T17:03:57.064Z,3.00
2022-11-23T17:06:23.948Z,2.87
2022-11-23T17:08:59.264Z,2.85
2022-11-23T17:11:27.859Z,2.85
2022-11-23T17:13:56.096Z,2.79
2022-11-23T17:16:24.867Z,2.78
2022-11-23T17:18:51.771Z,2.74
2022-11-23T17:21:18.491Z,2.72
2022-11-23T17:23:45.146Z,2.62
2022-11-23T17:26:38.614Z,2.53
2022-11-23T17:29:07.520Z,2.60
2022-11-23T17:31:34.535Z,2.56
2022-11-23T17:34:01.354Z,2.48
2022-11-23T17:36:29.642Z,2.48
2022-11-23T17:38:56.425Z,2.51
2022-11-23T17:41:23.196Z,2.54
2022-11-23T17:43:49.983Z,2.49
2022-11-23T17:46:19.336Z,2.50
2022-11-23T17:48:46.929Z,2.56
2022-11-23T17:51:13.813Z,2.58
2022-11-23T17:53:40.965Z,2.56
2022-11-23T17:56:15.625Z,2.48
2022-11-23T17:58:42.351Z,2.49
2022-11-23T18:01:13.667Z,2.50
2022-11-23T18:03:40.904Z,2.34
2022-11-23T18:06:12.367Z,2.40
2022-11-23T18:08:39.165Z,2.44
2022-11-23T18:11:06.745Z,2.35
2022-11-23T18:13:33.492Z,2.39
2022-11-23T18:16:00.262Z,2.38
2022-11-23T18:18:27.321Z,2.34
2022-11-23T18:20:54.175Z,2.29
2022-11-23T18:23:20.898Z,2.24
2022-11-23T18:25:47.664Z,2.20
2022-11-23T18:28:18.866Z,2.17
2022-11-23T18:30:48.139Z,2.16
2022-11-23T18:33:15.466Z,2.17
2022-11-23T18:35:42.206Z,2.26
2022-11-23T18:38:09.260Z,2.21
2022-11-23T18:40:36.044Z,2.07
2022-11-23T18:43:02.756Z,2.13
2022-11-23T18:45:29.436Z,2.21
2022-11-23T18:47:56.308Z,2.18
2022-11-23T18:50:23.663Z,2.11
2022-11-23T18:52:51.256Z,2.14
2022-11-23T18:55:18.465Z,2.05
2022-11-23T18:57:46.140Z,2.09
2022-11-23T19:00:15.738Z,2.09
2022-11-23T19:02:43.116Z,2.07
2022-11-23T19:05:09.992Z,2.10
2022-11-23T19:07:36.848Z,2.14
2022-11-23T19:10:03.815Z,2.15
2022-11-23T19:12:31.037Z,2.20
2022-11-23T19:14:57.824Z,2.17
2022-11-23T19:17:25.721Z,2.23
2022-11-23T19:19:52.930Z,2.24
2022-11-23T19:22:19.747Z,2.23
2022-11-23T19:24:46.873Z,2.12
2022-11-23T19:27:13.416Z,2.21
2022-11-23T19:29:40.249Z,2.21
2022-11-23T19:32:07.565Z,2.22
2022-11-23T19:34:35.144Z,2.13
2022-11-23T19:37:01.804Z,2.08
2022-11-23T19:39:28.780Z,2.13
2022-11-23T19:41:55.433Z,2.00
2022-11-23T19:44:22.197Z,2.09
2022-11-23T19:46:51.746Z,2.17
2022-11-23T19:49:18.630Z,2.11
2022-11-23T19:51:45.682Z,2.12
2022-11-23T19:54:12.414Z,2.19
2022-11-23T19:56:39.445Z,2.16
2022-11-23T19:59:06.626Z,2.20
2022-11-23T20:01:34.103Z,2.23
2022-11-23T20:04:08.830Z,2.22
2022-11-23T20:06:37.916Z,2.22
2022-11-23T20:09:07.903Z,2.24
2022-11-23T20:11:36.810Z,2.23
2022-11-23T20:14:03.867Z,2.24
2022-11-23T20:16:32.002Z,2.22
2022-11-23T20:19:04.475Z,2.18
2022-11-23T20:21:32.166Z,2.19
2022-11-23T20:24:07.974Z,2.11
2022-11-23T20:26:38.523Z,2.11
2022-11-23T20:29:06.365Z,2.16
2022-11-23T20:31:34.452Z,2.13
2022-11-23T20:34:02.593Z,2.06
2022-11-23T20:36:33.973Z,2.14
2022-11-23T20:39:08.485Z,2.14
2022-11-23T20:41:36.352Z,2.16
2022-11-23T20:44:11.530Z,2.18
2022-11-23T20:47:00.788Z,2.19
2022-11-23T20:49:25.541Z,2.09
2022-11-23T20:51:52.434Z,2.12
2022-11-23T20:54:19.327Z,2.07
2022-11-23T20:56:46.051Z,2.12
2022-11-23T20:59:12.862Z,2.15
2022-11-23T21:01:42.376Z,2.17
2022-11-23T21:04:09.208Z,2.21
2022-11-23T21:06:39.033Z,2.15
2022-11-23T21:09:07.928Z,2.15
2022-11-23T21:11:53.343Z,2.14
2022-11-23T21:14:22.100Z,2.12
2022-11-23T21:16:58.508Z,2.16
2022-11-23T21:19:36.892Z,2.07
2022-11-23T21:22:14.332Z,2.12
2022-11-23T21:24:41.290Z,2.08
2022-11-23T21:27:10.337Z,2.15
2022-11-23T21:29:37.292Z,1.99
2022-11-23T21:32:05.606Z,2.01
2022-11-23T21:34:32.699Z,2.06
2022-11-23T21:36:59.591Z,2.08
2022-11-23T21:39:26.355Z,2.05
2022-11-23T21:41:54.227Z,2.13
2022-11-23T21:44:22.921Z,2.25
2022-11-23T21:46:50.045Z,2.20
2022-11-23T21:49:16.768Z,2.06
2022-11-23T21:51:44.718Z,2.06
2022-11-23T21:54:14.343Z,2.09
2022-11-23T21:56:42.492Z,2.03
2022-11-23T21:59:09.517Z,2.07
2022-11-23T22:01:37.196Z,2.05
2022-11-23T22:04:15.522Z,2.06
2022-11-23T22:06:45.716Z,2.00
2022-11-23T22:09:12.700Z,1.87
2022-11-23T22:11:41.607Z,1.92
2022-11-23T22:14:12.772Z,1.93
2022-11-23T22:16:42.604Z,1.90
2022-11-23T22:19:14.038Z,1.85
2022-11-23T22:21:42.185Z,1.89
2022-11-23T22:24:13.737Z,1.87
2022-11-23T22:26:40.855Z,1.81
2022-11-23T22:29:07.512Z,1.79
2022-11-23T22:31:35.230Z,1.79
2022-11-23T22:34:02.872Z,1.77
2022-11-23T22:36:29.954Z,1.63
2022-11-23T22:39:02.487Z,1.57
2022-11-23T22:41:30.338Z,1.51
2022-11-23T22:43:57.090Z,1.32
2022-11-23T22:46:25.212Z,1.32
2022-11-23T22:48:52.929Z,1.41
2022-11-23T22:51:21.794Z,1.52
2022-11-23T22:53:48.848Z,1.54
2022-11-23T22:56:17.593Z,1.45
2022-11-23T22:58:45.404Z,1.41
2022-11-23T23:01:20.161Z,1.37
2022-11-23T23:03:47.226Z,1.34
2022-11-23T23:06:21.801Z,1.46
2022-11-23T23:08:53.410Z,1.35
2022-11-23T23:11:21.252Z,1.37
2022-11-23T23:13:47.946Z,1.44
2022-11-23T23:16:14.793Z,1.30
2022-11-23T23:18:42.680Z,1.42
2022-11-23T23:21:17.779Z,1.38
2022-11-23T23:23:49.385Z,1.45
2022-11-23T23:26:17.878Z,1.49
2022-11-23T23:28:44.495Z,1.52
2022-11-23T23:31:14.077Z,1.49
2022-11-23T23:33:40.888Z,1.50
2022-11-23T23:36:09.732Z,1.53
2022-11-23T23:38:37.404Z,1.54
2022-11-23T23:41:05.367Z,1.52
2022-11-23T23:43:32.126Z,1.54
2022-11-23T23:46:00.272Z,1.58
2022-11-23T23:48:31.864Z,1.63
2022-11-23T23:50:58.454Z,1.85
2022-11-23T23:53:25.214Z,1.77
2022-11-23T23:55:58.804Z,1.67
2022-11-23T23:58:25.761Z,1.67
